Time;durP1;ratioP1;P1;durP2;ratioP2;P2;SDS_P1;SDS_P2;PMS_P1;PMS_P2;Temp;Humidity;BMP_temperature;BMP_pressure;BME280_temperature;BME280_humidity;BME280_pressure;Samples;Min_cycle;Max_cycle;Signal;HPM_P1;HPM_P2
2022/04/07 00:00:49;;;;;;;3.67;2.57;;;;;;;10.24;70.63;98578.50;4980577;28;20246;-81
2022/04/07 00:03:16;;;;;;;6.43;3.23;;;;;;;10.24;70.76;98567.00;4991149;28;20211;-82
2022/04/07 00:05:42;;;;;;;3.53;2.87;;;;;;;10.24;70.69;98565.19;4991813;28;20371;-84
2022/04/07 00:08:10;;;;;;;4.57;3.10;;;;;;;10.25;70.52;98566.88;4991923;28;20211;-82
2022/04/07 00:10:37;;;;;;;3.13;2.73;;;;;;;10.28;70.48;98555.09;4990679;28;20228;-83
2022/04/07 00:13:04;;;;;;;2.90;2.57;;;;;;;10.27;70.09;98543.63;4990947;28;20614;-82
2022/04/07 00:15:32;;;;;;;5.60;3.53;;;;;;;10.28;69.93;98545.28;4973340;28;20204;-82
2022/04/07 00:17:59;;;;;;;5.73;3.63;;;;;;;10.30;69.92;98539.84;4974708;28;20208;-83
2022/04/07 00:20:26;;;;;;;4.27;3.07;;;;;;;10.26;69.88;98525.16;4991964;28;20196;-83
2022/04/07 00:22:53;;;;;;;3.20;2.90;;;;;;;10.25;69.93;98510.16;4989592;28;20204;-83
2022/04/07 00:25:20;;;;;;;3.83;3.23;;;;;;;10.28;69.54;98510.72;4991469;28;20210;-84
2022/04/07 00:27:47;;;;;;;6.50;3.67;;;;;;;10.26;69.40;98507.34;4977364;28;20279;-82
2022/04/07 00:30:15;;;;;;;3.77;2.97;;;;;;;10.27;69.36;98510.84;4991307;28;20717;-83
2022/04/07 00:32:44;;;;;;;6.07;3.27;;;;;;;10.25;69.74;98504.84;4991929;28;20575;-82
2022/04/07 00:35:10;;;;;;;3.97;3.30;;;;;;;10.23;69.78;98504.16;4991951;28;20218;-83
2022/04/07 00:37:37;;;;;;;5.83;3.40;;;;;;;10.23;69.36;98499.66;4991117;28;20203;-81
2022/04/07 00:40:05;;;;;;;5.03;3.23;;;;;;;10.21;69.56;98514.94;4992194;28;20207;-82
2022/04/07 00:42:32;;;;;;;3.97;3.57;;;;;;;10.19;69.50;98508.94;4992370;28;20733;-82
2022/04/07 00:44:59;;;;;;;4.37;3.30;;;;;;;10.15;69.86;98504.03;4991898;28;20214;-83
2022/04/07 00:47:27;;;;;;;5.30;4.17;;;;;;;10.18;69.54;98475.31;4995808;28;20210;-83
2022/04/07 00:49:55;;;;;;;6.37;3.23;;;;;;;10.18;69.53;98487.78;4998371;28;20658;-83
2022/04/07 00:52:22;;;;;;;7.17;4.00;;;;;;;10.17;69.10;98483.44;4998302;28;20219;-82
2022/04/07 00:54:49;;;;;;;3.97;3.40;;;;;;;10.15;69.00;98469.44;4998500;28;20215;-83
2022/04/07 00:57:16;;;;;;;5.83;3.97;;;;;;;10.14;69.20;98465.94;4997492;28;20200;-83
2022/04/07 00:59:43;;;;;;;4.27;3.10;;;;;;;10.10;69.47;98457.44;4997974;28;20207;-82
2022/04/07 01:02:10;;;;;;;3.97;3.20;;;;;;;10.12;69.10;98456.44;4997311;28;20259;-83
2022/04/07 01:04:36;;;;;;;4.90;2.80;;;;;;;10.10;69.79;98448.59;4995608;28;20798;-84
2022/04/07 01:07:07;;;;;;;4.33;3.37;;;;;;;10.07;69.94;98454.22;4997363;28;20207;-82
2022/04/07 01:09:34;;;;;;;4.57;3.40;;;;;;;10.08;69.99;98458.56;4997586;28;20959;-84
2022/04/07 01:12:01;;;;;;;4.67;3.40;;;;;;;10.06;69.65;98458.69;4997557;28;20228;-83
2022/04/07 01:14:27;;;;;;;5.20;3.53;;;;;;;10.07;70.10;98464.84;4988304;28;20216;-83
2022/04/07 01:16:54;;;;;;;4.10;3.30;;;;;;;10.06;70.10;98466.69;4982466;28;20559;-82
2022/04/07 01:19:20;;;;;;;6.50;3.40;;;;;;;10.10;71.15;98468.06;4987875;28;20572;-82
2022/04/07 01:21:47;;;;;;;3.57;3.23;;;;;;;10.08;71.29;98472.69;4981805;28;20230;-84
2022/04/07 01:24:18;;;;;;;4.30;3.40;;;;;;;10.06;72.44;98465.84;4992613;28;20551;-84
2022/04/07 01:26:47;;;;;;;5.60;3.30;;;;;;;10.04;72.90;98463.31;4995219;28;20258;-83
2022/04/07 01:29:15;;;;;;;4.63;3.23;;;;;;;10.03;73.11;98458.97;5000192;28;20712;-83
2022/04/07 01:31:42;;;;;;;5.30;3.27;;;;;;;10.03;73.21;98455.53;5002705;28;20234;-82
2022/04/07 01:34:13;;;;;;;5.17;3.03;;;;;;;9.92;75.27;98453.03;4995000;28;20208;-82
2022/04/07 01:36:42;;;;;;;3.10;2.80;;;;;;;9.88;75.15;98443.66;4983537;28;20200;-83
2022/04/07 01:39:10;;;;;;;3.33;2.90;;;;;;;9.84;75.14;98444.97;4985633;28;20200;-83
2022/04/07 01:41:36;;;;;;;4.00;3.23;;;;;;;9.78;75.74;98437.56;4980483;28;20220;-82
2022/04/07 01:44:05;;;;;;;3.37;2.93;;;;;;;9.75;75.82;98436.03;4991960;28;20203;-83
2022/04/07 01:46:34;;;;;;;5.30;3.10;;;;;;;9.71;76.22;98435.47;4985951;28;20199;-81
2022/04/07 01:49:02;;;;;;;5.13;3.27;;;;;;;9.70;76.31;98427.66;4994688;28;20726;-82
2022/04/07 01:51:29;;;;;;;5.40;3.27;;;;;;;9.66;76.39;98432.44;4977556;28;20217;-81
2022/04/07 01:53:57;;;;;;;4.17;3.30;;;;;;;9.66;77.17;98420.97;4985738;28;20204;-82
2022/04/07 01:56:25;;;;;;;4.57;3.37;;;;;;;9.62;77.26;98419.56;5000122;28;20659;-82
2022/04/07 01:58:53;;;;;;;3.93;3.33;;;;;;;9.60;77.08;98422.38;5000475;28;20199;-83
2022/04/07 02:01:21;;;;;;;4.33;3.17;;;;;;;9.57;77.21;98417.34;4986117;28;20224;-83
2022/04/07 02:03:47;;;;;;;4.90;3.50;;;;;;;9.57;77.91;98414.69;4976145;28;20204;-81
2022/04/07 02:06:16;;;;;;;5.27;3.47;;;;;;;9.55;78.08;98408.69;4991713;28;20200;-82
2022/04/07 02:08:43;;;;;;;6.37;3.00;;;;;;;9.57;78.03;98406.72;4993754;28;20212;-82
2022/04/07 02:11:11;;;;;;;5.43;2.90;;;;;;;9.54;78.53;98403.50;4986015;28;20285;-81
2022/04/07 02:13:39;;;;;;;5.37;3.50;;;;;;;9.52;78.54;98395.69;4996048;28;20686;-82
2022/04/07 02:16:06;;;;;;;4.13;3.03;;;;;;;9.45;79.22;98396.41;4995107;28;20211;-80
2022/04/07 02:18:34;;;;;;;3.57;2.27;;;;;;;9.44;79.14;98394.75;5001985;28;20207;-82
2022/04/07 02:21:01;;;;;;;3.23;1.97;;;;;;;9.41;79.13;98387.91;4989961;28;20262;-84
2022/04/07 02:23:27;;;;;;;2.93;2.03;;;;;;;9.36;78.77;98385.66;4976891;28;20199;-83
2022/04/07 02:25:56;;;;;;;3.73;2.43;;;;;;;9.36;79.07;98388.31;4993775;28;20857;-82
2022/04/07 02:28:23;;;;;;;3.80;1.80;;;;;;;9.34;79.11;98381.47;5000737;28;20682;-81
2022/04/07 02:30:50;;;;;;;3.47;1.90;;;;;;;9.31;79.18;98382.63;4984345;28;20228;-82
2022/04/07 02:33:16;;;;;;;2.13;1.63;;;;;;;9.31;79.01;98392.41;4991572;28;20204;-82
2022/04/07 02:35:45;;;;;;;2.60;1.50;;;;;;;9.25;79.51;98391.16;4977165;28;20222;-82
2022/04/07 02:38:12;;;;;;;2.40;1.10;;;;;;;9.24;79.00;98380.69;4975036;28;20204;-82
2022/04/07 02:40:38;;;;;;;3.00;1.40;;;;;;;9.24;79.27;98365.59;4989437;28;20228;-83
2022/04/07 02:43:05;;;;;;;2.40;1.10;;;;;;;9.23;79.03;98366.56;4975898;28;20581;-82
2022/04/07 02:45:32;;;;;;;1.60;1.20;;;;;;;9.18;79.20;98366.16;4989681;28;20266;-82
2022/04/07 02:47:58;;;;;;;1.73;0.80;;;;;;;9.15;78.70;98350.50;5004038;28;20754;-82
2022/04/07 02:50:25;;;;;;;1.50;0.70;;;;;;;9.11;78.37;98335.84;4997740;28;20223;-82
2022/04/07 02:52:53;;;;;;;1.07;0.97;;;;;;;9.06;78.57;98322.16;4988841;28;20207;-83
2022/04/07 02:55:19;;;;;;;1.07;0.80;;;;;;;9.03;79.11;98317.97;4987135;28;20199;-81
2022/04/07 02:57:46;;;;;;;2.53;0.90;;;;;;;9.01;78.92;98311.13;4999085;23;20246;-72
2022/04/07 03:00:13;;;;;;;2.17;0.80;;;;;;;9.01;79.17;98303.16;4985954;28;20676;-71
2022/04/07 03:02:40;;;;;;;1.80;0.80;;;;;;;8.98;78.80;98304.28;4975971;28;20628;-72
2022/04/07 03:05:07;;;;;;;1.17;0.83;;;;;;;8.97;78.64;98294.66;4983374;28;20501;-72
2022/04/07 03:07:36;;;;;;;0.87;0.80;;;;;;;8.98;78.53;98304.28;4987345;28;20223;-71
2022/04/07 03:10:04;;;;;;;1.53;1.00;;;;;;;8.98;78.92;98298.16;4971357;28;20745;-71
2022/04/07 03:12:30;;;;;;;1.50;0.90;;;;;;;8.99;79.10;98290.03;4986552;28;20204;-72
2022/04/07 03:14:57;;;;;;;2.00;0.87;;;;;;;9.00;78.35;98289.06;4988825;28;20208;-72
2022/04/07 03:17:23;;;;;;;1.13;0.90;;;;;;;8.99;78.94;98286.53;4978305;28;20236;-71
2022/04/07 03:19:50;;;;;;;0.87;0.87;;;;;;;8.97;78.51;98270.75;4971249;28;20204;-72
2022/04/07 03:22:18;;;;;;;3.27;0.90;;;;;;;8.97;78.61;98262.78;4981382;28;20206;-71
2022/04/07 03:24:45;;;;;;;1.50;1.10;;;;;;;8.95;78.93;98259.47;4987888;28;20646;-72
2022/04/07 03:27:13;;;;;;;3.07;1.10;;;;;;;8.94;78.17;98244.53;4987223;28;20229;-71
2022/04/07 03:29:39;;;;;;;1.00;0.70;;;;;;;8.94;78.38;98260.47;4985910;28;20220;-71
2022/04/07 03:32:07;;;;;;;1.90;0.90;;;;;;;8.92;78.33;98243.84;4982225;28;20622;-71
2022/04/07 03:34:34;;;;;;;1.73;0.90;;;;;;;8.89;77.91;98257.38;4985739;28;20207;-71
2022/04/07 03:37:00;;;;;;;1.93;1.10;;;;;;;8.91;77.60;98239.50;4976068;28;20351;-71
2022/04/07 03:39:27;;;;;;;2.07;0.90;;;;;;;8.92;78.29;98240.34;4981855;28;20206;-71
2022/04/07 03:41:54;;;;;;;3.37;1.13;;;;;;;8.91;77.98;98230.69;4982071;28;20199;-71
2022/04/07 03:44:22;;;;;;;2.33;1.00;;;;;;;8.90;76.95;98216.59;4986724;28;20208;-71
2022/04/07 03:46:48;;;;;;;1.70;0.90;;;;;;;8.95;77.50;98217.00;4972527;28;20259;-71
2022/04/07 03:49:15;;;;;;;2.13;1.20;;;;;;;8.98;77.34;98219.34;4989189;28;20214;-71
2022/04/07 03:51:41;;;;;;;3.87;1.10;;;;;;;8.99;76.54;98215.69;4989189;28;20252;-71
2022/04/07 03:54:08;;;;;;;3.13;0.90;;;;;;;9.01;77.23;98218.22;4989651;28;20243;-71
2022/04/07 03:56:34;;;;;;;2.40;1.10;;;;;;;9.00;76.31;98220.03;4989428;28;20243;-72
2022/04/07 03:59:01;;;;;;;3.67;1.13;;;;;;;8.99;76.80;98221.00;4989242;28;20264;-71
2022/04/07 04:01:29;;;;;;;4.90;1.17;;;;;;;9.00;76.79;98213.88;4985169;28;20196;-71
2022/04/07 04:03:56;;;;;;;3.57;1.00;;;;;;;9.01;76.82;98218.22;4989702;28;20214;-72
2022/04/07 04:06:23;;;;;;;3.10;1.30;;;;;;;9.02;76.27;98193.34;4989504;28;20322;-72
2022/04/07 04:08:49;;;;;;;2.57;1.07;;;;;;;9.02;76.18;98188.03;4989524;28;20650;-71
2022/04/07 04:11:16;;;;;;;2.47;1.10;;;;;;;9.04;76.42;98188.72;4989026;28;20223;-71
2022/04/07 04:13:42;;;;;;;1.80;1.10;;;;;;;9.07;75.36;98182.28;4989066;28;20208;-71
2022/04/07 04:16:09;;;;;;;2.03;1.17;;;;;;;9.09;75.91;98175.00;4989139;28;20227;-71
2022/04/07 04:18:37;;;;;;;2.63;0.90;;;;;;;9.13;75.93;98171.09;4984996;28;20200;-71
2022/04/07 04:21:03;;;;;;;2.07;0.90;;;;;;;9.14;75.09;98178.88;4971028;28;20216;-71
2022/04/07 04:23:30;;;;;;;2.53;1.07;;;;;;;9.15;74.79;98169.91;4978572;28;20204;-71
2022/04/07 04:25:56;;;;;;;1.03;1.00;;;;;;;9.17;75.03;98172.44;4981814;28;20261;-71
2022/04/07 04:28:23;;;;;;;3.17;1.00;;;;;;;9.18;74.57;98169.63;4986156;28;20210;-70
2022/04/07 04:30:49;;;;;;;3.03;1.20;;;;;;;9.23;75.13;98171.84;4973556;28;20228;-71
2022/04/07 04:33:16;;;;;;;1.17;0.70;;;;;;;9.24;74.27;98170.88;4985588;28;20204;-71
2022/04/07 04:35:44;;;;;;;1.40;0.97;;;;;;;9.25;74.41;98164.56;4983224;28;20200;-71
2022/04/07 04:38:10;;;;;;;2.17;0.90;;;;;;;9.23;73.94;98161.22;4989238;28;20211;-71
2022/04/07 04:40:37;;;;;;;3.07;1.00;;;;;;;9.26;74.31;98147.66;4985321;28;20222;-71
2022/04/07 04:43:03;;;;;;;3.17;1.00;;;;;;;9.30;74.00;98157.84;4988382;28;20335;-71
2022/04/07 04:45:30;;;;;;;2.13;1.27;;;;;;;9.30;73.59;98149.03;4983796;28;20219;-71
2022/04/07 04:47:56;;;;;;;1.73;0.73;;;;;;;9.35;73.44;98147.56;4988727;28;20234;-71
2022/04/07 04:50:24;;;;;;;3.00;0.80;;;;;;;9.37;73.56;98139.47;4980595;28;20617;-71
2022/04/07 04:52:52;;;;;;;0.70;0.70;;;;;;;9.34;72.93;98124.66;4984785;28;20210;-71
2022/04/07 04:55:19;;;;;;;2.33;1.30;;;;;;;9.37;73.45;98118.22;4980849;28;20200;-71
2022/04/07 04:57:47;;;;;;;2.03;0.83;;;;;;;9.37;72.85;98128.84;4980542;28;20735;-72
2022/04/07 05:00:14;;;;;;;2.50;0.77;;;;;;;9.38;72.72;98131.34;4969639;28;20208;-71
2022/04/07 05:02:41;;;;;;;1.00;0.90;;;;;;;9.40;73.29;98124.06;4973411;28;20208;-72
2022/04/07 05:05:08;;;;;;;2.43;1.33;;;;;;;9.45;72.94;98126.28;4970931;28;20291;-71
2022/04/07 05:07:35;;;;;;;3.33;1.00;;;;;;;9.43;72.87;98122.94;4974145;28;20223;-71
2022/04/07 05:10:04;;;;;;;1.70;0.80;;;;;;;9.48;72.91;98120.66;4980046;28;20257;-72
2022/04/07 05:12:30;;;;;;;2.57;0.90;;;;;;;9.46;72.45;98117.31;4974049;28;20204;-71
2022/04/07 05:14:57;;;;;;;2.40;1.00;;;;;;;9.51;72.76;98108.88;4978708;28;20220;-71
2022/04/07 05:17:23;;;;;;;2.97;0.97;;;;;;;9.53;72.94;98106.91;4988577;28;20219;-72
2022/04/07 05:19:50;;;;;;;1.37;0.80;;;;;;;9.55;72.50;98095.13;4978006;28;20220;-71
2022/04/07 05:22:18;;;;;;;2.40;0.67;;;;;;;9.54;72.57;98090.81;4969679;28;20205;-70
2022/04/07 05:24:44;;;;;;;1.80;0.77;;;;;;;9.56;72.66;98088.00;4972872;28;20204;-71
2022/04/07 05:27:12;;;;;;;1.53;0.87;;;;;;;9.59;72.39;98077.06;4986134;28;20514;-71
2022/04/07 05:29:39;;;;;;;1.00;0.70;;;;;;;9.59;72.62;98075.25;4974598;28;20211;-70
2022/04/07 05:32:06;;;;;;;2.37;0.90;;;;;;;9.61;72.09;98069.78;4982586;28;20243;-71
2022/04/07 05:34:33;;;;;;;2.40;0.53;;;;;;;9.62;72.03;98069.63;4985682;28;20347;-72
2022/04/07 05:37:00;;;;;;;1.37;0.63;;;;;;;9.65;72.14;98069.31;4982456;28;20235;-71
2022/04/07 05:39:26;;;;;;;1.37;0.63;;;;;;;9.66;72.06;98075.47;4978739;28;20217;-71
2022/04/07 05:41:52;;;;;;;1.33;0.80;;;;;;;9.71;71.66;98065.19;4990321;28;20199;-71
2022/04/07 05:44:20;;;;;;;1.07;0.53;;;;;;;9.74;71.84;98038.31;4979168;28;20352;-71
2022/04/07 05:46:47;;;;;;;1.43;0.60;;;;;;;9.75;72.01;98048.78;4991481;28;20233;-71
2022/04/07 05:49:13;;;;;;;1.80;0.60;;;;;;;9.80;71.48;98045.69;4985737;28;20682;-71
2022/04/07 05:51:40;;;;;;;2.03;0.60;;;;;;;9.84;71.25;98024.94;4984051;28;20231;-71
2022/04/07 05:54:07;;;;;;;2.00;0.70;;;;;;;9.89;70.79;98025.28;4987449;28;20212;-71
2022/04/07 05:56:34;;;;;;;2.03;0.60;;;;;;;9.91;71.20;98033.94;4987255;28;20325;-71
2022/04/07 05:59:00;;;;;;;2.37;0.70;;;;;;;9.92;70.59;98015.19;4983184;28;20512;-72
2022/04/07 06:01:30;;;;;;;2.10;0.70;;;;;;;9.93;70.93;98005.38;4986297;28;20203;-71
2022/04/07 06:03:56;;;;;;;1.40;0.60;;;;;;;9.98;70.71;98006.59;4984197;28;20273;-71
2022/04/07 06:06:23;;;;;;;0.90;0.50;;;;;;;10.04;70.83;98013.06;4983575;28;21557;-72
2022/04/07 06:08:49;;;;;;;0.67;0.50;;;;;;;10.13;70.75;98008.66;4987933;28;20213;-70
2022/04/07 06:11:16;;;;;;;1.13;0.70;;;;;;;10.16;70.41;97993.22;4989895;28;20737;-71
2022/04/07 06:13:42;;;;;;;1.53;0.73;;;;;;;10.21;70.61;97990.13;4990910;28;20222;-71
2022/04/07 06:16:09;;;;;;;2.17;1.00;;;;;;;10.27;70.55;97990.28;4991733;28;20640;-71
2022/04/07 06:18:37;;;;;;;1.10;0.67;;;;;;;10.33;70.30;97983.50;4992105;28;20681;-71
2022/04/07 06:21:03;;;;;;;1.83;1.00;;;;;;;10.40;70.34;97980.03;4987870;28;20203;-71
2022/04/07 06:23:32;;;;;;;2.97;0.80;;;;;;;10.48;69.88;97973.91;4974461;28;20204;-71
2022/04/07 06:25:58;;;;;;;1.80;0.63;;;;;;;10.58;69.30;97968.44;4987593;28;20241;-71
2022/04/07 06:28:25;;;;;;;2.87;0.57;;;;;;;10.68;69.29;97950.50;4991716;28;20212;-71
2022/04/07 06:30:54;;;;;;;2.83;0.80;;;;;;;10.80;69.13;97946.53;4992483;28;20310;-71
2022/04/07 06:33:21;;;;;;;2.37;0.90;;;;;;;10.89;68.66;97942.06;4973449;28;20239;-71
2022/04/07 06:35:49;;;;;;;2.57;0.53;;;;;;;11.01;68.24;97940.72;4971815;28;20286;-71
2022/04/07 06:38:16;;;;;;;2.07;0.93;;;;;;;11.06;67.63;97923.25;4974565;28;20208;-71
2022/04/07 06:40:42;;;;;;;1.10;0.77;;;;;;;11.10;67.19;97899.78;4976421;28;20218;-71
2022/04/07 06:43:09;;;;;;;1.40;0.90;;;;;;;11.13;66.63;97902.09;4985851;28;20671;-71
2022/04/07 06:45:35;;;;;;;3.43;1.67;;;;;;;11.20;66.83;97900.44;4990266;28;20622;-71
2022/04/07 06:48:02;;;;;;;2.83;1.00;;;;;;;11.29;66.68;97894.09;4990698;28;20209;-71
2022/04/07 06:50:28;;;;;;;2.13;1.17;;;;;;;11.39;66.61;97872.59;4982697;28;20245;-71
2022/04/07 06:52:57;;;;;;;3.80;0.93;;;;;;;11.43;66.06;97873.94;4980116;28;20200;-71
2022/04/07 06:55:24;;;;;;;1.43;0.90;;;;;;;11.41;65.73;97865.28;4974666;28;20272;-71
2022/04/07 06:57:52;;;;;;;2.47;0.70;;;;;;;11.40;65.01;97859.13;4978280;28;20226;-70
2022/04/07 07:00:19;;;;;;;0.90;0.50;;;;;;;11.36;65.13;97848.97;4983775;28;20211;-71
2022/04/07 07:02:47;;;;;;;2.00;0.60;;;;;;;11.29;65.10;97834.63;4986213;28;20223;-71
2022/04/07 07:05:14;;;;;;;3.40;0.60;;;;;;;11.24;65.17;97831.69;4985861;28;20205;-70
2022/04/07 07:07:40;;;;;;;0.80;0.40;;;;;;;11.21;65.40;97811.53;4985374;28;20230;-71
2022/04/07 07:10:09;;;;;;;0.77;0.43;;;;;;;11.19;65.60;97813.53;4985738;28;20203;-71
2022/04/07 07:12:35;;;;;;;2.53;0.60;;;;;;;11.17;65.71;97807.53;4986315;28;20572;-70
2022/04/07 07:15:02;;;;;;;1.80;0.60;;;;;;;11.13;66.08;97807.03;4982946;28;20206;-71
2022/04/07 07:17:33;;;;;;;0.70;0.60;;;;;;;11.12;66.19;97804.53;4988631;28;20223;-71
2022/04/07 07:20:01;;;;;;;1.50;0.40;;;;;;;11.10;66.29;97812.72;4987083;28;20440;-70
2022/04/07 07:22:28;;;;;;;1.40;0.30;;;;;;;11.07;66.37;97804.25;4988304;28;20654;-71
2022/04/07 07:24:54;;;;;;;1.23;0.57;;;;;;;11.02;66.69;97798.59;4988154;28;20226;-71
2022/04/07 07:27:22;;;;;;;1.00;0.43;;;;;;;11.03;66.74;97800.25;4985433;28;20239;-70
2022/04/07 07:29:49;;;;;;;0.57;0.17;;;;;;;11.04;66.92;97773.44;4988223;28;20221;-71
2022/04/07 07:32:15;;;;;;;2.67;0.40;;;;;;;11.07;67.27;97767.78;4979821;28;20733;-70
2022/04/07 07:34:42;;;;;;;1.77;0.43;;;;;;;11.07;67.17;97766.94;4983878;28;20400;-71
2022/04/07 07:37:08;;;;;;;0.50;0.50;;;;;;;11.12;67.32;97762.75;4983787;28;20247;-71
2022/04/07 07:39:35;;;;;;;0.80;0.33;;;;;;;11.13;67.58;97753.75;4986927;28;20199;-70
2022/04/07 07:42:01;;;;;;;0.20;0.20;;;;;;;11.13;67.67;97743.13;4983959;28;20207;-71
2022/04/07 07:44:29;;;;;;;2.30;0.30;;;;;;;11.13;67.85;97743.13;4983448;28;20214;-70
2022/04/07 07:46:56;;;;;;;0.70;0.23;;;;;;;11.16;67.89;97738.44;4983519;28;20235;-70
2022/04/07 07:49:22;;;;;;;0.57;0.23;;;;;;;11.14;68.01;97725.31;4985142;28;20212;-71
2022/04/07 07:51:51;;;;;;;0.53;0.30;;;;;;;11.18;68.15;97723.13;4984004;28;20240;-71
2022/04/07 07:54:18;;;;;;;0.87;0.20;;;;;;;11.21;67.69;97712.13;4983792;28;20263;-70
2022/04/07 07:56:45;;;;;;;0.40;0.20;;;;;;;11.21;67.64;97704.97;4984370;28;20239;-71
2022/04/07 07:59:11;;;;;;;0.67;0.20;;;;;;;11.23;67.79;97694.16;4985035;28;20207;-70
2022/04/07 08:01:39;;;;;;;0.40;0.30;;;;;;;11.27;67.77;97675.00;4980362;28;20206;-72
2022/04/07 08:04:05;;;;;;;0.47;0.20;;;;;;;11.29;67.87;97669.47;4984303;28;20200;-72
2022/04/07 08:06:32;;;;;;;0.40;0.20;;;;;;;11.30;68.03;97657.78;4986510;28;20598;-71
2022/04/07 08:08:59;;;;;;;0.53;0.23;;;;;;;11.36;67.94;97657.09;4985382;28;20261;-72
2022/04/07 08:11:25;;;;;;;0.73;0.30;;;;;;;11.38;67.60;97645.28;4984671;28;20229;-72
2022/04/07 08:13:52;;;;;;;0.93;0.20;;;;;;;11.47;67.86;97654.88;4983291;28;20567;-71
2022/04/07 08:16:18;;;;;;;0.27;0.20;;;;;;;11.62;68.05;97638.16;4986615;28;20718;-72
2022/04/07 08:18:46;;;;;;;0.10;0.10;;;;;;;11.75;67.73;97641.03;4981760;28;20219;-71
2022/04/07 08:21:13;;;;;;;0.20;0.20;;;;;;;11.83;67.57;97636.50;4980698;28;20196;-72
2022/04/07 08:23:39;;;;;;;0.57;0.30;;;;;;;11.89;66.96;97628.81;4980779;28;20612;-72
2022/04/07 08:26:06;;;;;;;0.63;0.20;;;;;;;11.96;66.89;97633.25;4982018;28;20226;-72
2022/04/07 08:28:32;;;;;;;0.10;0.10;;;;;;;12.03;66.16;97631.50;4981426;28;20218;-71
2022/04/07 08:30:59;;;;;;;0.20;0.20;;;;;;;12.10;66.02;97618.28;4983186;28;20203;-71
2022/04/07 08:33:25;;;;;;;0.80;0.10;;;;;;;12.09;66.06;97628.13;4981571;28;20215;-71
2022/04/07 08:35:54;;;;;;;0.87;0.40;;;;;;;12.11;66.41;97611.94;4979852;28;20227;-72
2022/04/07 08:38:21;;;;;;;0.83;0.30;;;;;;;12.12;66.30;97621.63;4983642;28;20210;-71
2022/04/07 08:40:50;;;;;;;0.30;0.30;;;;;;;12.15;66.43;97613.25;4982386;28;20207;-71
2022/04/07 08:43:17;;;;;;;0.53;0.30;;;;;;;12.18;66.14;97609.41;4984670;28;20211;-71
2022/04/07 08:45:45;;;;;;;0.33;0.20;;;;;;;12.14;66.13;97607.09;4986492;28;20249;-71
2022/04/07 08:48:13;;;;;;;0.20;0.20;;;;;;;12.11;66.68;97599.44;4983684;28;20210;-71
2022/04/07 08:50:41;;;;;;;0.47;0.20;;;;;;;12.10;66.49;97596.94;4987145;28;20571;-71
2022/04/07 08:53:09;;;;;;;0.13;0.13;;;;;;;11.99;66.58;97586.72;4981175;28;20235;-72
2022/04/07 08:55:35;;;;;;;0.10;0.10;;;;;;;11.90;66.40;97601.13;4984549;28;20212;-72
2022/04/07 08:58:02;;;;;;;0.63;0.20;;;;;;;11.86;66.90;97594.50;4984061;28;20236;-72
2022/04/07 09:00:29;;;;;;;0.63;0.10;;;;;;;11.90;66.97;97580.63;4979426;28;20227;-73
2022/04/07 09:02:56;;;;;;;0.33;0.20;;;;;;;11.86;67.49;97579.31;4980806;28;20303;-72
2022/04/07 09:05:24;;;;;;;0.43;0.30;;;;;;;11.85;67.99;97566.16;4983265;28;20216;-72
2022/04/07 09:07:52;;;;;;;0.73;0.20;;;;;;;11.73;68.30;97568.41;4984389;28;20242;-73
2022/04/07 09:10:21;;;;;;;0.63;0.10;;;;;;;11.68;68.66;97558.28;4990299;23;20320;-77
2022/04/07 09:12:48;;;;;;;0.83;0.20;;;;;;;11.57;69.18;97558.72;4975758;28;20716;-77
2022/04/07 09:15:15;;;;;;;0.73;0.17;;;;;;;11.47;69.84;97528.78;4976025;28;20214;-78
2022/04/07 09:17:52;;;;;;;0.20;0.20;;;;;;;11.46;70.05;97532.50;4976731;28;20210;-78
2022/04/07 09:20:19;;;;;;;0.37;0.20;;;;;;;11.37;70.42;97536.22;4976049;28;20228;-79
2022/04/07 09:22:55;;;;;;;0.57;0.20;;;;;;;11.32;70.78;97512.75;4975854;28;20208;-78
2022/04/07 09:25:23;;;;;;;3.63;1.40;;;;;;;11.34;71.07;97501.91;4976260;28;20184;-79
2022/04/07 09:27:50;;;;;;;0.67;0.50;;;;;;;11.28;71.44;97515.97;4976114;28;20217;-79
2022/04/07 09:30:17;;;;;;;0.20;0.20;;;;;;;11.24;72.48;97493.34;4975747;28;20229;-78
2022/04/07 09:32:45;;;;;;;1.70;0.27;;;;;;;11.23;72.75;97491.69;4975769;28;20232;-79
2022/04/07 09:35:13;;;;;;;0.40;0.10;;;;;;;11.19;72.92;97504.53;4967935;28;20687;-79
2022/04/07 09:37:41;;;;;;;0.57;0.20;;;;;;;11.14;73.10;97498.91;4976054;28;20218;-79
2022/04/07 09:40:09;;;;;;;0.40;0.30;;;;;;;11.08;73.41;97478.31;4965525;28;20230;-79
2022/04/07 09:42:38;;;;;;;0.83;0.50;;;;;;;11.05;73.70;97478.66;4970867;28;20197;-78
2022/04/07 09:45:07;;;;;;;0.80;0.10;;;;;;;11.00;73.86;97479.19;4969100;28;20208;-78
2022/04/07 09:47:35;;;;;;;0.43;0.17;;;;;;;10.99;74.35;97455.41;4976646;28;20577;-79
2022/04/07 09:50:02;;;;;;;0.83;0.23;;;;;;;10.93;74.77;97448.94;4976561;28;20236;-79
2022/04/07 09:52:29;;;;;;;0.40;0.20;;;;;;;10.89;75.18;97433.53;4976084;28;20225;-79
2022/04/07 09:55:02;;;;;;;0.80;0.20;;;;;;;10.88;75.86;97424.72;4976056;28;20219;-79
2022/04/07 09:57:29;;;;;;;1.80;0.23;;;;;;;10.90;76.13;97405.91;4976420;28;20208;-79
2022/04/07 09:59:58;;;;;;;1.70;0.20;;;;;;;10.91;76.82;97384.41;4975846;28;20224;-79
2022/04/07 10:02:25;;;;;;;0.93;0.77;;;;;;;10.95;77.92;97384.88;4976504;28;20212;-79
2022/04/07 10:04:53;;;;;;;0.20;0.20;;;;;;;10.98;77.71;97377.34;4968065;28;20221;-79
2022/04/07 10:07:20;;;;;;;1.17;0.20;;;;;;;11.09;78.64;97362.81;4965290;28;20220;-78
2022/04/07 10:09:47;;;;;;;1.43;0.20;;;;;;;11.12;77.99;97347.25;4975809;28;20233;-78
2022/04/07 10:12:13;;;;;;;0.10;0.10;;;;;;;11.17;78.34;97332.59;4975200;28;20255;-78
2022/04/07 10:14:40;;;;;;;0.30;0.27;;;;;;;11.19;78.46;97334.06;4976161;28;20196;-79
2022/04/07 10:17:10;;;;;;;0.10;0.10;;;;;;;11.18;77.61;97344.91;4968115;28;20637;-79
2022/04/07 10:19:43;;;;;;;0.20;0.20;;;;;;;11.23;78.14;97330.03;4978175;28;20222;-81
2022/04/07 10:22:26;;;;;;;0.60;0.30;;;;;;;11.20;77.53;97314.41;4975225;28;20200;-81
2022/04/07 10:24:56;;;;;;;0.73;0.20;;;;;;;11.22;77.26;97309.72;4978377;28;20741;-82
2022/04/07 10:27:29;;;;;;;0.30;0.20;;;;;;;11.20;77.42;97294.94;4980217;28;20209;-83
2022/04/07 10:30:04;;;;;;;1.03;0.20;;;;;;;11.12;77.14;97274.53;4979420;28;20242;-83
2022/04/07 10:32:39;;;;;;;0.77;0.20;;;;;;;11.11;77.79;97278.19;4978792;28;20223;-82
2022/04/07 10:35:06;;;;;;;0.43;0.30;;;;;;;11.14;77.94;97276.00;4979779;28;20212;-83
2022/04/07 10:37:42;;;;;;;0.47;0.10;;;;;;;11.16;78.56;97264.34;4977032;28;20214;-82
2022/04/07 10:40:32;;;;;;;0.10;0.10;;;;;;;11.18;78.73;97249.00;4977133;28;20615;-82
2022/04/07 10:43:19;;;;;;;0.43;0.30;;;;;;;11.23;79.35;97241.31;4977939;28;20192;-81
2022/04/07 10:45:47;;;;;;;0.70;0.30;;;;;;;11.31;79.64;97233.19;4977456;28;20199;-81
2022/04/07 10:48:20;;;;;;;0.20;0.20;;;;;;;11.38;79.53;97244.78;4978389;28;20302;-81
2022/04/07 10:50:49;;;;;;;1.23;0.20;;;;;;;11.38;79.22;97240.28;4979492;28;20232;-81
2022/04/07 10:53:25;;;;;;;0.80;0.27;;;;;;;11.40;79.33;97246.25;4978312;28;20256;-81
2022/04/07 10:56:01;;;;;;;0.13;0.10;;;;;;;11.40;78.77;97267.56;4978067;28;20596;-81
2022/04/07 10:58:48;;;;;;;0.40;0.40;;;;;;;11.36;79.13;97473.25;4979175;28;20213;-82
2022/04/07 11:01:51;;;;;;;1.60;0.30;;;;;;;11.06;71.56;97547.75;4980508;28;20757;-84
2022/04/07 11:04:46;;;;;;;2.37;0.40;;;;;;;10.30;66.20;97527.13;4953424;29;20539;-84
2022/04/07 11:07:14;;;;;;;1.33;0.20;;;;;;;9.72;66.85;97474.22;4968607;28;20561;-85
2022/04/07 11:09:45;;;;;;;2.37;0.30;;;;;;;9.28;67.12;97471.13;4980949;28;20236;-83
2022/04/07 11:12:17;;;;;;;0.97;0.40;;;;;;;8.94;68.50;97473.94;4980282;28;20220;-85
2022/04/07 11:14:43;;;;;;;1.57;0.30;;;;;;;8.68;69.24;97440.41;4980027;28;20207;-83
2022/04/07 11:17:14;;;;;;;1.33;0.30;;;;;;;8.52;70.63;97490.75;4979806;28;20214;-83
2022/04/07 11:19:53;;;;;;;2.53;0.63;;;;;;;8.41;72.17;97517.59;4978744;28;20638;-83
2022/04/07 11:22:22;;;;;;;1.93;0.47;;;;;;;8.31;71.96;97504.41;4978729;28;20286;-83
2022/04/07 11:24:53;;;;;;;1.37;0.30;;;;;;;8.20;72.75;97506.50;4978287;28;20215;-83
2022/04/07 11:27:38;;;;;;;1.37;0.57;;;;;;;8.08;73.77;97474.13;4977323;28;20196;-83
2022/04/07 11:30:08;;;;;;;1.27;0.60;;;;;;;7.98;73.74;97476.91;4977779;28;20232;-83
2022/04/07 11:32:35;;;;;;;2.33;1.13;;;;;;;7.89;73.18;97464.59;4977301;28;20228;-83
2022/04/07 11:35:15;;;;;;;0.80;0.43;;;;;;;7.84;74.20;97472.22;4976962;28;20215;-83
2022/04/07 11:37:43;;;;;;;1.30;0.40;;;;;;;7.80;74.57;97462.91;4976670;28;20210;-83
2022/04/07 11:40:10;;;;;;;1.30;0.40;;;;;;;7.77;75.55;97442.03;4978845;28;20234;-84